createdAt,value
2018-08-03T00:01:52.631Z,51.90
2018-08-03T00:04:21.895Z,52.00
2018-08-03T00:06:50.240Z,51.90
2018-08-03T00:09:18.802Z,51.90
2018-08-03T00:11:48.087Z,51.90
2018-08-03T00:14:16.944Z,51.90
2018-08-03T00:16:47.608Z,52.00
2018-08-03T00:19:17.874Z,52.00
2018-08-03T00:21:51.799Z,52.10
2018-08-03T00:24:20.238Z,52.10
2018-08-03T00:26:51.692Z,51.80
2018-08-03T00:29:20.513Z,51.60
2018-08-03T00:31:48.974Z,51.30
2018-08-03T00:34:19.174Z,51.30
2018-08-03T00:36:50.924Z,51.40
2018-08-03T00:39:20.332Z,51.50
2018-08-03T00:42:04.586Z,51.70
2018-08-03T00:44:34.729Z,51.80
2018-08-03T00:47:05.310Z,52.00
2018-08-03T00:49:34.410Z,52.20
2018-08-03T00:52:03.810Z,52.30
2018-08-03T00:54:32.612Z,52.40
2018-08-03T00:57:06.404Z,52.40
2018-08-03T00:59:35.324Z,52.40
2018-08-03T01:02:06.393Z,52.50
2018-08-03T01:04:35.064Z,52.40
2018-08-03T01:07:03.733Z,52.50
2018-08-03T01:09:33.146Z,52.50
2018-08-03T01:12:02.575Z,52.60
2018-08-03T01:14:35.974Z,52.70
2018-08-03T01:17:05.052Z,52.60
2018-08-03T01:19:35.330Z,52.60
2018-08-03T01:22:18.703Z,52.80
2018-08-03T01:24:47.907Z,52.70
2018-08-03T01:27:17.628Z,52.70
2018-08-03T01:29:47.850Z,52.70
2018-08-03T01:32:17.029Z,52.70
2018-08-03T01:34:45.839Z,52.60
2018-08-03T01:37:23.240Z,52.70
2018-08-03T01:39:54.932Z,52.80
2018-08-03T01:42:30.602Z,52.70
2018-08-03T01:45:14.131Z,52.80
2018-08-03T01:47:43.502Z,52.90
2018-08-03T01:50:18.923Z,52.90
2018-08-03T01:52:52.114Z,52.90
2018-08-03T01:55:37.432Z,53.00
2018-08-03T01:58:17.755Z,53.00
2018-08-03T02:00:47.876Z,53.10
2018-08-03T02:03:31.919Z,53.20
2018-08-03T02:06:02.462Z,53.20
2018-08-03T02:08:34.317Z,53.30
2018-08-03T02:11:04.793Z,53.30
2018-08-03T02:13:33.619Z,53.20
2018-08-03T02:16:10.139Z,53.30
2018-08-03T02:18:41.751Z,53.20
2018-08-03T02:21:13.015Z,53.30
2018-08-03T02:24:01.551Z,53.20
2018-08-03T02:26:40.175Z,53.10
2018-08-03T02:29:09.494Z,53.10
2018-08-03T02:31:40.192Z,53.20
2018-08-03T02:36:38.164Z,53.30
2018-08-03T02:39:08.922Z,53.20
2018-08-03T02:41:39.122Z,53.20
2018-08-03T02:44:08.430Z,53.20
2018-08-03T02:46:38.472Z,53.10
2018-08-03T02:49:14.690Z,53.20
2018-08-03T02:51:44.057Z,53.10
2018-08-03T02:54:12.649Z,53.00
2018-08-03T02:56:41.284Z,52.90
2018-08-03T02:59:10.278Z,52.90
2018-08-03T03:01:43.337Z,52.90
2018-08-03T03:04:12.727Z,52.90
2018-08-03T03:06:46.254Z,53.00
2018-08-03T03:09:16.158Z,53.00
2018-08-03T03:11:45.462Z,53.00
2018-08-03T03:14:18.450Z,53.00
2018-08-03T03:16:46.948Z,53.10
2018-08-03T03:19:15.272Z,53.10
2018-08-03T03:21:49.359Z,53.20
2018-08-03T03:24:32.740Z,53.30
2018-08-03T03:27:01.046Z,53.30
2018-08-03T03:29:29.707Z,53.40
2018-08-03T03:31:58.066Z,54.20
2018-08-03T03:34:26.327Z,53.80
2018-08-03T03:36:54.624Z,53.90
2018-08-03T03:39:22.923Z,54.00
2018-08-03T03:41:51.202Z,54.10
2018-08-03T03:44:19.531Z,54.20
2018-08-03T03:46:47.983Z,54.30
2018-08-03T03:49:16.230Z,54.40
2018-08-03T03:51:44.523Z,54.50
2018-08-03T03:54:13.456Z,54.60
2018-08-03T03:56:41.767Z,54.70
2018-08-03T03:59:10.058Z,54.80
2018-08-03T04:01:38.480Z,54.90
2018-08-03T04:04:07.058Z,55.00
2018-08-03T04:06:35.464Z,55.20
2018-08-03T04:09:06.231Z,55.40
2018-08-03T04:11:34.494Z,56.10
2018-08-03T04:14:02.831Z,55.70
2018-08-03T04:16:31.101Z,55.90
2018-08-03T04:18:59.615Z,55.80
2018-08-03T04:21:28.143Z,55.90
2018-08-03T04:26:24.832Z,55.90
2018-08-03T04:28:53.467Z,56.00
2018-08-03T04:31:22.123Z,55.90
2018-08-03T04:34:10.139Z,56.00
2018-08-03T04:36:38.542Z,56.00
2018-08-03T04:39:07.470Z,55.90
2018-08-03T04:41:35.887Z,56.00
2018-08-03T04:44:04.138Z,56.10
2018-08-03T04:46:32.502Z,56.10
2018-08-03T04:49:01.343Z,56.20
2018-08-03T04:51:31.347Z,56.30
2018-08-03T04:54:24.223Z,56.20
2018-08-03T04:56:53.478Z,56.40
2018-08-03T04:59:22.362Z,56.30
2018-08-03T05:01:52.331Z,56.40
2018-08-03T05:04:22.593Z,56.50
2018-08-03T05:06:51.850Z,56.70
2018-08-03T05:09:20.221Z,56.80
2018-08-03T05:11:49.043Z,56.90
2018-08-03T05:14:17.574Z,57.10
2018-08-03T05:16:45.878Z,57.20
2018-08-03T05:19:14.106Z,57.20
2018-08-03T05:21:42.549Z,57.40
2018-08-03T05:24:10.960Z,57.50
2018-08-03T05:26:39.314Z,57.50
2018-08-03T05:29:07.927Z,57.60
2018-08-03T05:31:36.337Z,58.00
2018-08-03T05:34:04.618Z,58.30
2018-08-03T05:36:32.855Z,58.50
2018-08-03T05:39:01.207Z,58.60
2018-08-03T05:41:29.478Z,58.60
2018-08-03T05:43:57.692Z,58.60
2018-08-03T05:46:25.913Z,58.70
2018-08-03T05:48:54.342Z,58.60
2018-08-03T05:51:46.362Z,58.60
2018-08-03T06:38:21.355Z,59.60
2018-08-03T06:41:13.472Z,60.00
2018-08-03T06:43:41.831Z,59.40
2018-08-03T06:46:10.574Z,59.30
2018-08-03T06:48:40.604Z,59.00
2018-08-03T06:51:08.918Z,59.00
2018-08-03T06:53:37.402Z,57.60
2018-08-03T06:56:05.658Z,56.40
2018-08-03T06:58:34.554Z,55.50
2018-08-03T07:01:02.908Z,55.00
2018-08-03T07:03:31.195Z,54.50
2018-08-03T07:05:59.846Z,53.60
2018-08-03T07:08:28.482Z,52.90
2018-08-03T07:10:56.735Z,52.90
2018-08-03T07:13:25.043Z,53.00
2018-08-03T07:15:53.296Z,53.20
2018-08-03T07:18:21.551Z,53.20
2018-08-03T07:20:49.947Z,53.00
2018-08-03T07:23:18.398Z,52.80
2018-08-03T07:25:47.416Z,52.70
2018-08-03T07:33:12.243Z,52.40
2018-08-03T07:38:08.912Z,51.70
2018-08-03T07:40:47.447Z,51.50
2018-08-03T07:43:16.046Z,51.20
2018-08-03T07:45:44.274Z,50.40
2018-08-03T07:48:21.385Z,49.90
2018-08-03T07:50:50.407Z,49.60
2018-08-03T07:53:18.760Z,49.20
2018-08-03T07:55:47.075Z,48.90
2018-08-03T07:58:15.399Z,48.60
2018-08-03T08:08:32.937Z,48.80
2018-08-03T08:11:01.231Z,48.60
2018-08-03T08:15:57.674Z,48.00
2018-08-03T08:20:57.109Z,47.00
2018-08-03T08:23:35.748Z,46.90
2018-08-03T08:26:04.075Z,46.50
2018-08-03T08:28:32.636Z,46.20
2018-08-03T08:31:01.194Z,45.80
2018-08-03T08:33:30.490Z,46.00
2018-08-03T08:35:58.727Z,46.20
2018-08-03T08:38:27.206Z,46.00
2018-08-03T08:43:25.692Z,46.20
2018-08-03T08:45:55.488Z,46.40
2018-08-03T08:48:24.949Z,46.40
2018-08-03T08:50:53.609Z,45.70
2018-08-03T08:53:27.940Z,45.70
2018-08-03T08:55:56.625Z,45.90
2018-08-03T09:00:55.560Z,45.40
2018-08-03T09:03:24.659Z,45.30
2018-08-03T09:05:53.215Z,45.50
2018-08-03T09:08:21.659Z,45.70
2018-08-03T09:10:50.390Z,45.40
2018-08-03T09:13:18.777Z,45.10
2018-08-03T09:15:47.378Z,44.50
2018-08-03T09:18:15.997Z,44.20
2018-08-03T09:20:44.354Z,43.70
2018-08-03T09:23:13.195Z,43.00
2018-08-03T09:25:42.414Z,42.20
2018-08-03T09:28:11.431Z,41.50
2018-08-03T09:30:40.752Z,41.00
2018-08-03T09:33:10.312Z,39.80
2018-08-03T09:35:39.437Z,39.20
2018-08-03T09:38:08.620Z,38.70
2018-08-03T09:40:37.794Z,38.20
2018-08-03T09:43:08.656Z,37.70
2018-08-03T09:45:37.032Z,37.60
2018-08-03T09:48:06.370Z,37.60
2018-08-03T09:50:35.566Z,37.60
2018-08-03T09:53:05.265Z,37.60
2018-08-03T09:55:35.003Z,37.50
2018-08-03T09:58:04.008Z,37.10
2018-08-03T10:00:38.767Z,36.70
2018-08-03T10:03:09.751Z,36.30
2018-08-03T10:05:39.835Z,36.00
2018-08-03T10:08:10.181Z,35.50
2018-08-03T10:10:40.813Z,34.70
2018-08-03T10:13:10.425Z,34.40
2018-08-03T10:15:40.575Z,34.50
2018-08-03T10:18:09.102Z,34.50
2018-08-03T10:20:37.359Z,34.60
2018-08-03T10:23:05.979Z,34.20
2018-08-03T10:25:44.445Z,33.40
2018-08-03T10:28:13.176Z,32.50
2018-08-03T10:30:41.662Z,31.80
2018-08-03T10:33:12.503Z,31.80
2018-08-03T10:35:41.541Z,32.20
2018-08-03T10:38:10.087Z,32.50
2018-08-03T10:40:38.538Z,32.40
2018-08-03T10:43:12.953Z,32.20
2018-08-03T10:48:09.668Z,32.10
2018-08-03T10:50:39.126Z,32.00
2018-08-03T10:53:07.665Z,32.20
2018-08-03T10:55:38.104Z,32.20
2018-08-03T10:58:06.951Z,32.00
2018-08-03T11:03:27.990Z,31.70
2018-08-03T11:05:59.619Z,31.80
2018-08-03T11:08:28.123Z,31.80
2018-08-03T11:10:56.486Z,31.80
2018-08-03T11:13:25.058Z,31.70
2018-08-03T11:15:53.395Z,31.60
2018-08-03T11:18:21.937Z,31.50
2018-08-03T11:20:50.315Z,31.70
2018-08-03T11:23:19.051Z,31.80
2018-08-03T11:25:48.675Z,31.90
2018-08-03T11:28:19.811Z,32.00
2018-08-03T11:30:48.723Z,32.00
2018-08-03T11:33:17.063Z,31.90
2018-08-03T11:35:45.310Z,32.00
2018-08-03T11:38:13.779Z,32.00
2018-08-03T11:40:43.618Z,32.00
2018-08-03T11:43:12.658Z,31.80
2018-08-03T11:45:48.413Z,31.70
2018-08-03T11:48:30.758Z,31.80
2018-08-03T11:50:59.303Z,31.90
2018-08-03T11:53:28.536Z,32.10
2018-08-03T11:55:57.036Z,32.10
2018-08-03T11:58:25.379Z,32.00
2018-08-03T12:00:53.686Z,31.90
2018-08-03T12:03:22.110Z,32.20
2018-08-03T12:05:50.418Z,32.30
2018-08-03T12:08:18.734Z,32.40
2018-08-03T12:10:46.926Z,32.40
2018-08-03T12:13:15.392Z,32.50
2018-08-03T12:15:43.594Z,32.70
2018-08-03T12:18:14.091Z,32.70
2018-08-03T12:20:43.942Z,32.70
2018-08-03T12:23:12.366Z,32.80
2018-08-03T12:25:41.255Z,32.80
2018-08-03T12:28:09.602Z,32.90
2018-08-03T12:30:38.534Z,33.00
2018-08-03T12:33:09.278Z,33.60
2018-08-03T12:35:37.795Z,34.00
2018-08-03T12:38:06.433Z,34.10
2018-08-03T12:40:34.719Z,34.30
2018-08-03T12:43:08.320Z,34.80
2018-08-03T12:45:36.631Z,35.00
2018-08-03T12:48:04.926Z,34.80
2018-08-03T12:50:36.055Z,34.50
2018-08-03T12:53:04.519Z,34.30
2018-08-03T12:55:33.500Z,34.40
2018-08-03T12:58:02.270Z,34.30
2018-08-03T13:00:30.686Z,34.30
2018-08-03T13:02:59.262Z,34.50
2018-08-03T13:05:27.611Z,34.90
2018-08-03T13:07:56.504Z,34.70
2018-08-03T13:10:25.328Z,34.80
2018-08-03T13:12:54.068Z,34.70
2018-08-03T13:15:22.749Z,35.10
2018-08-03T13:17:51.894Z,34.60
2018-08-03T13:20:20.272Z,35.10
2018-08-03T13:22:48.790Z,35.60
2018-08-03T13:25:17.076Z,35.80
2018-08-03T13:27:46.064Z,35.90
2018-08-03T13:30:14.304Z,36.00
2018-08-03T13:35:58.654Z,35.90
2018-08-03T13:38:27.049Z,35.60
2018-08-03T13:41:02.227Z,35.50
2018-08-03T13:43:35.708Z,35.70
2018-08-03T13:46:04.050Z,36.00
2018-08-03T13:48:32.388Z,36.00
2018-08-03T13:51:00.830Z,36.20
2018-08-03T13:53:29.797Z,36.10
2018-08-03T13:55:58.276Z,35.80
2018-08-03T13:58:26.583Z,35.50
2018-08-03T14:01:08.898Z,35.30
2018-08-03T14:03:37.471Z,35.60
2018-08-03T14:06:05.979Z,36.40
2018-08-03T14:08:34.530Z,37.30
2018-08-03T14:11:02.889Z,37.60
2018-08-03T14:13:31.262Z,37.90
2018-08-03T14:16:00.459Z,37.30
2018-08-03T14:18:37.735Z,37.40
2018-08-03T14:21:06.379Z,37.50
2018-08-03T14:26:02.907Z,36.90
2018-08-03T14:28:31.295Z,36.70
2018-08-03T14:33:28.294Z,37.20
2018-08-03T14:35:56.888Z,37.20
2018-08-03T14:38:25.319Z,37.40
2018-08-03T14:40:56.958Z,37.30
2018-08-03T14:43:34.967Z,37.00
2018-08-03T14:46:03.558Z,37.00
2018-08-03T14:48:32.031Z,37.00
2018-08-03T14:51:01.870Z,36.80
2018-08-03T14:53:35.851Z,36.90
2018-08-03T14:56:07.146Z,37.00
2018-08-03T14:58:35.951Z,37.20
2018-08-03T15:01:04.840Z,36.80
2018-08-03T15:03:44.901Z,36.90
2018-08-03T15:06:17.710Z,36.60
2018-08-03T15:08:50.004Z,34.50
2018-08-03T15:11:19.071Z,31.80
2018-08-03T15:13:52.705Z,32.30
2018-08-03T15:16:21.233Z,33.90
2018-08-03T15:18:55.646Z,33.70
2018-08-03T15:21:31.562Z,33.50
2018-08-03T15:24:04.046Z,32.90
2018-08-03T15:26:41.413Z,32.70
2018-08-03T15:29:11.958Z,33.00
2018-08-03T15:31:44.632Z,33.00
2018-08-03T15:34:34.833Z,32.60
2018-08-03T15:37:04.197Z,32.00
2018-08-03T15:39:32.665Z,31.40
2018-08-03T15:42:08.043Z,30.80
2018-08-03T15:44:40.446Z,29.70
2018-08-03T15:47:21.691Z,28.60
2018-08-03T15:49:50.355Z,27.90
2018-08-03T15:52:18.721Z,27.10
2018-08-03T15:54:51.289Z,26.70
2018-08-03T15:57:21.731Z,26.50
2018-08-03T15:59:50.333Z,26.20
2018-08-03T16:02:20.555Z,25.40
2018-08-03T16:04:49.795Z,24.90
2018-08-03T16:07:19.210Z,24.90
2018-08-03T16:09:47.889Z,24.70
2018-08-03T16:12:35.414Z,24.30
2018-08-03T16:15:04.269Z,24.10
2018-08-03T16:17:34.378Z,23.80
2018-08-03T16:20:04.097Z,23.80
2018-08-03T16:25:18.890Z,24.10
2018-08-03T16:27:48.688Z,24.30
2018-08-03T16:30:17.912Z,24.40
2018-08-03T16:32:52.139Z,24.80
2018-08-03T16:35:21.443Z,25.40
2018-08-03T16:37:50.877Z,26.10
2018-08-03T16:40:21.624Z,26.80
2018-08-03T16:42:50.533Z,27.50
2018-08-03T16:45:26.144Z,28.00
2018-08-03T16:47:56.272Z,28.40
2018-08-03T16:50:26.073Z,28.70
2018-08-03T16:52:54.452Z,28.70
2018-08-03T16:55:50.449Z,29.40
2018-08-03T16:58:19.607Z,29.70
2018-08-03T17:00:49.398Z,30.70
2018-08-03T17:03:23.635Z,32.00
2018-08-03T17:05:58.467Z,32.60
2018-08-03T17:08:33.321Z,33.70
2018-08-03T17:11:02.826Z,34.30
2018-08-03T17:13:38.338Z,35.40
2018-08-03T17:16:07.651Z,36.40
2018-08-03T17:18:36.403Z,36.80
2018-08-03T17:21:06.500Z,36.60
2018-08-03T17:23:35.351Z,36.20
2018-08-03T17:26:04.879Z,36.00
2018-08-03T17:28:35.833Z,35.80
2018-08-03T17:31:06.584Z,35.80
2018-08-03T17:33:37.603Z,36.20
2018-08-03T17:36:11.009Z,36.70
2018-08-03T17:41:24.467Z,37.60
2018-08-03T17:52:26.372Z,38.90
2018-08-03T17:55:05.240Z,39.50
2018-08-03T17:57:35.389Z,38.90
2018-08-03T18:00:11.202Z,38.90
2018-08-03T18:08:17.623Z,38.00
2018-08-03T18:10:53.351Z,38.10
2018-08-03T18:13:26.412Z,38.00
2018-08-03T18:16:05.794Z,37.60
2018-08-03T18:18:35.178Z,37.60
2018-08-03T18:21:04.194Z,38.90
2018-08-03T18:23:34.901Z,40.00
2018-08-03T18:26:04.606Z,40.00
2018-08-03T18:28:44.382Z,40.10
2018-08-03T18:31:14.752Z,39.60
2018-08-03T18:33:43.843Z,39.40
2018-08-03T18:36:13.682Z,41.30
2018-08-03T18:38:42.381Z,42.20
2018-08-03T18:41:11.642Z,42.70
2018-08-03T18:43:41.115Z,43.50
2018-08-03T18:46:15.947Z,44.60
2018-08-03T18:55:47.897Z,46.00
2018-08-03T18:58:22.950Z,46.00
2018-08-03T19:00:53.688Z,46.00
2018-08-03T19:05:54.623Z,44.60
2018-08-03T19:08:30.334Z,44.10
2018-08-03T19:11:08.175Z,43.70
2018-08-03T19:13:42.086Z,43.30
2018-08-03T19:16:24.969Z,43.00
2018-08-03T19:18:56.577Z,43.20
2018-08-03T19:24:10.346Z,43.10
2018-08-03T19:32:19.270Z,43.20
2018-08-03T19:34:50.588Z,43.30
2018-08-03T19:37:25.829Z,43.40
2018-08-03T19:39:55.153Z,43.20
2018-08-03T19:44:59.010Z,43.00
2018-08-03T19:47:27.754Z,43.10
2018-08-03T19:49:56.152Z,43.30
2018-08-03T19:52:29.012Z,42.50
2018-08-03T19:55:11.755Z,42.40
2018-08-03T19:57:41.281Z,42.00
2018-08-03T20:00:14.723Z,41.50
2018-08-03T20:02:53.496Z,41.50
2018-08-03T20:05:29.624Z,42.40
2018-08-03T20:08:04.479Z,43.50
2018-08-03T20:10:35.305Z,44.80
2018-08-03T20:13:17.750Z,45.60
2018-08-03T20:18:38.999Z,46.20
2018-08-03T20:23:48.626Z,44.90
2018-08-03T20:28:50.516Z,43.80
2018-08-03T20:31:23.032Z,43.60
2018-08-03T20:36:53.582Z,43.20
2018-08-03T20:39:22.730Z,43.40
2018-08-03T20:41:52.252Z,43.70
2018-08-03T20:44:29.103Z,43.80
2018-08-03T20:46:58.093Z,44.10
2018-08-03T20:49:27.401Z,44.00
2018-08-03T20:51:55.775Z,44.10
2018-08-03T20:54:24.648Z,44.40
2018-08-03T20:56:53.070Z,44.40
2018-08-03T20:59:23.228Z,45.20
2018-08-03T21:01:52.922Z,44.90
2018-08-03T21:04:22.975Z,45.20
2018-08-03T21:06:51.950Z,44.60
2018-08-03T21:09:22.021Z,43.90
2018-08-03T21:11:50.987Z,44.00
2018-08-03T21:28:26.395Z,43.00
2018-08-03T21:30:55.284Z,42.40
2018-08-03T21:33:23.889Z,42.20
2018-08-03T21:35:52.256Z,42.10
2018-08-03T21:38:22.951Z,42.00
2018-08-03T21:40:51.297Z,41.80
2018-08-03T21:43:39.306Z,41.70
2018-08-03T21:46:08.497Z,41.80
2018-08-03T21:48:37.073Z,41.60
2018-08-03T21:51:05.767Z,41.40
2018-08-03T21:53:35.075Z,41.40
2018-08-03T21:56:04.311Z,41.50
2018-08-03T22:01:01.380Z,41.70
2018-08-03T22:03:29.978Z,41.80
2018-08-03T22:05:58.461Z,41.90
2018-08-03T22:08:26.798Z,41.90
2018-08-03T22:13:24.098Z,42.00
2018-08-03T22:15:53.107Z,42.00
2018-08-03T22:18:22.412Z,42.10
2018-08-03T22:20:51.003Z,42.10
2018-08-03T22:23:19.693Z,42.10
2018-08-03T22:25:48.127Z,42.00
2018-08-03T22:28:17.778Z,41.90
2018-08-03T22:30:46.239Z,41.90
2018-08-03T22:33:14.547Z,42.00
2018-08-03T22:35:46.489Z,42.10
2018-08-03T22:38:15.070Z,42.20
2018-08-03T22:40:43.467Z,42.30
2018-08-03T22:43:11.826Z,42.40
2018-08-03T22:45:40.275Z,42.50
2018-08-03T22:48:10.777Z,42.70
2018-08-03T22:50:39.083Z,42.70
2018-08-03T22:53:07.501Z,42.90
2018-08-03T22:55:36.139Z,43.00
2018-08-03T22:58:04.593Z,43.10
2018-08-03T23:00:33.652Z,43.10
2018-08-03T23:03:02.324Z,43.00
2018-08-03T23:05:30.656Z,43.00
2018-08-03T23:07:59.885Z,42.80
2018-08-03T23:10:28.278Z,42.90
2018-08-03T23:12:56.656Z,42.80
2018-08-03T23:15:25.303Z,42.70
2018-08-03T23:17:53.980Z,42.60
2018-08-03T23:22:50.417Z,42.50
2018-08-03T23:25:18.747Z,42.20
2018-08-03T23:27:47.274Z,42.00
2018-08-03T23:30:15.687Z,41.80
2018-08-03T23:32:44.176Z,41.50
2018-08-03T23:35:23.333Z,41.50
2018-08-03T23:37:51.674Z,41.40
2018-08-03T23:40:20.147Z,41.40
2018-08-03T23:42:48.595Z,41.50
2018-08-03T23:45:17.138Z,41.60
2018-08-03T23:47:51.931Z,41.60
